sensor_id;sensor_type;location;lat;lon;timestamp;P1;durP1;ratioP1;P2;durP2;ratioP2
16957;SDS011;8595;52.542;11.974;2023-03-01T00:02:20;14.10;;;9.47;;
16957;SDS011;8595;52.542;11.974;2023-03-01T00:04:48;10.50;;;7.73;;
16957;SDS011;8595;52.542;11.974;2023-03-01T00:09:52;10.23;;;6.90;;
16957;SDS011;8595;52.542;11.974;2023-03-01T00:12:19;12.53;;;8.57;;
16957;SDS011;8595;52.542;11.974;2023-03-01T00:14:46;11.10;;;7.47;;
16957;SDS011;8595;52.542;11.974;2023-03-01T00:17:13;13.27;;;8.03;;
16957;SDS011;8595;52.542;11.974;2023-03-01T00:19:39;17.53;;;9.07;;
16957;SDS011;8595;52.542;11.974;2023-03-01T00:22:07;12.43;;;9.13;;
16957;SDS011;8595;52.542;11.974;2023-03-01T00:24:37;12.03;;;8.50;;
16957;SDS011;8595;52.542;11.974;2023-03-01T00:27:07;12.70;;;8.33;;
16957;SDS011;8595;52.542;11.974;2023-03-01T00:29:35;12.47;;;8.80;;
16957;SDS011;8595;52.542;11.974;2023-03-01T00:32:02;13.33;;;9.57;;
16957;SDS011;8595;52.542;11.974;2023-03-01T00:34:29;15.00;;;8.63;;
16957;SDS011;8595;52.542;11.974;2023-03-01T00:36:55;13.53;;;9.50;;
16957;SDS011;8595;52.542;11.974;2023-03-01T00:39:31;13.93;;;9.13;;
16957;SDS011;8595;52.542;11.974;2023-03-01T00:41:58;15.70;;;10.43;;
16957;SDS011;8595;52.542;11.974;2023-03-01T00:44:25;15.13;;;10.03;;
16957;SDS011;8595;52.542;11.974;2023-03-01T00:46:56;13.80;;;9.47;;
16957;SDS011;8595;52.542;11.974;2023-03-01T00:49:22;14.73;;;9.60;;
16957;SDS011;8595;52.542;11.974;2023-03-01T00:54:35;18.47;;;10.63;;
16957;SDS011;8595;52.542;11.974;2023-03-01T00:57:02;16.20;;;10.03;;
16957;SDS011;8595;52.542;11.974;2023-03-01T00:59:29;15.00;;;10.30;;
16957;SDS011;8595;52.542;11.974;2023-03-01T01:01:56;16.83;;;11.40;;
16957;SDS011;8595;52.542;11.974;2023-03-01T01:04:25;19.27;;;11.93;;
16957;SDS011;8595;52.542;11.974;2023-03-01T01:06:51;16.97;;;10.90;;
16957;SDS011;8595;52.542;11.974;2023-03-01T01:09:18;16.30;;;10.83;;
16957;SDS011;8595;52.542;11.974;2023-03-01T01:11:47;18.17;;;11.07;;
16957;SDS011;8595;52.542;11.974;2023-03-01T01:14:19;15.20;;;9.97;;
16957;SDS011;8595;52.542;11.974;2023-03-01T01:16:46;13.17;;;9.40;;
16957;SDS011;8595;52.542;11.974;2023-03-01T01:19:13;16.77;;;10.97;;
16957;SDS011;8595;52.542;11.974;2023-03-01T01:21:44;16.17;;;10.90;;
16957;SDS011;8595;52.542;11.974;2023-03-01T01:24:11;17.70;;;10.77;;
16957;SDS011;8595;52.542;11.974;2023-03-01T01:26:38;14.93;;;10.83;;
16957;SDS011;8595;52.542;11.974;2023-03-01T01:29:06;15.73;;;10.07;;
16957;SDS011;8595;52.542;11.974;2023-03-01T01:31:34;16.13;;;9.87;;
16957;SDS011;8595;52.542;11.974;2023-03-01T01:34:04;14.57;;;9.73;;
16957;SDS011;8595;52.542;11.974;2023-03-01T01:36:33;17.67;;;10.70;;
16957;SDS011;8595;52.542;11.974;2023-03-01T01:39:01;14.67;;;9.73;;
16957;SDS011;8595;52.542;11.974;2023-03-01T01:41:28;13.50;;;9.27;;
16957;SDS011;8595;52.542;11.974;2023-03-01T01:44:16;15.77;;;9.70;;
16957;SDS011;8595;52.542;11.974;2023-03-01T01:46:46;18.07;;;10.83;;
16957;SDS011;8595;52.542;11.974;2023-03-01T01:49:20;16.67;;;9.27;;
16957;SDS011;8595;52.542;11.974;2023-03-01T01:51:57;14.70;;;10.03;;
16957;SDS011;8595;52.542;11.974;2023-03-01T01:54:32;15.50;;;9.97;;
16957;SDS011;8595;52.542;11.974;2023-03-01T01:57:07;38.10;;;18.87;;
16957;SDS011;8595;52.542;11.974;2023-03-01T01:59:40;44.73;;;22.13;;
16957;SDS011;8595;52.542;11.974;2023-03-01T02:02:11;29.97;;;16.50;;
16957;SDS011;8595;52.542;11.974;2023-03-01T02:04:39;23.40;;;14.47;;
16957;SDS011;8595;52.542;11.974;2023-03-01T02:07:08;20.60;;;13.23;;
16957;SDS011;8595;52.542;11.974;2023-03-01T02:09:41;22.30;;;13.73;;
16957;SDS011;8595;52.542;11.974;2023-03-01T02:12:11;24.53;;;13.50;;
16957;SDS011;8595;52.542;11.974;2023-03-01T02:14:40;22.97;;;14.57;;
16957;SDS011;8595;52.542;11.974;2023-03-01T02:17:07;23.00;;;15.57;;
16957;SDS011;8595;52.542;11.974;2023-03-01T02:19:42;34.20;;;18.17;;
16957;SDS011;8595;52.542;11.974;2023-03-01T02:22:22;29.73;;;17.20;;
16957;SDS011;8595;52.542;11.974;2023-03-01T02:24:55;23.30;;;14.30;;
16957;SDS011;8595;52.542;11.974;2023-03-01T02:27:31;25.20;;;14.07;;
16957;SDS011;8595;52.542;11.974;2023-03-01T02:30:05;24.07;;;14.50;;
16957;SDS011;8595;52.542;11.974;2023-03-01T02:32:33;17.93;;;12.23;;
16957;SDS011;8595;52.542;11.974;2023-03-01T02:35:02;25.60;;;14.67;;
16957;SDS011;8595;52.542;11.974;2023-03-01T02:37:31;20.37;;;12.90;;
16957;SDS011;8595;52.542;11.974;2023-03-01T02:40:02;18.83;;;12.00;;
16957;SDS011;8595;52.542;11.974;2023-03-01T02:42:38;22.47;;;13.63;;
16957;SDS011;8595;52.542;11.974;2023-03-01T02:45:13;17.23;;;11.40;;
16957;SDS011;8595;52.542;11.974;2023-03-01T02:47:40;14.93;;;10.53;;
16957;SDS011;8595;52.542;11.974;2023-03-01T02:50:15;18.17;;;10.57;;
16957;SDS011;8595;52.542;11.974;2023-03-01T02:52:53;15.50;;;10.80;;
16957;SDS011;8595;52.542;11.974;2023-03-01T02:55:28;18.37;;;11.73;;
16957;SDS011;8595;52.542;11.974;2023-03-01T02:57:55;18.27;;;11.00;;
16957;SDS011;8595;52.542;11.974;2023-03-01T03:00:26;18.97;;;11.57;;
16957;SDS011;8595;52.542;11.974;2023-03-01T03:03:10;17.17;;;11.40;;
16957;SDS011;8595;52.542;11.974;2023-03-01T03:05:39;18.80;;;12.67;;
16957;SDS011;8595;52.542;11.974;2023-03-01T03:08:06;19.33;;;13.53;;
16957;SDS011;8595;52.542;11.974;2023-03-01T03:10:34;16.80;;;12.10;;
16957;SDS011;8595;52.542;11.974;2023-03-01T03:13:03;19.43;;;12.53;;
16957;SDS011;8595;52.542;11.974;2023-03-01T03:15:33;16.17;;;11.07;;
16957;SDS011;8595;52.542;11.974;2023-03-01T03:18:04;19.70;;;12.03;;
16957;SDS011;8595;52.542;11.974;2023-03-01T03:20:34;15.03;;;10.90;;
16957;SDS011;8595;52.542;11.974;2023-03-01T03:23:02;18.30;;;11.83;;
16957;SDS011;8595;52.542;11.974;2023-03-01T03:25:29;15.30;;;11.30;;
16957;SDS011;8595;52.542;11.974;2023-03-01T03:27:57;17.20;;;11.07;;
16957;SDS011;8595;52.542;11.974;2023-03-01T03:30:25;17.83;;;11.50;;
16957;SDS011;8595;52.542;11.974;2023-03-01T03:32:56;22.03;;;11.33;;
16957;SDS011;8595;52.542;11.974;2023-03-01T03:35:25;16.63;;;11.30;;
16957;SDS011;8595;52.542;11.974;2023-03-01T03:37:55;18.80;;;11.97;;
16957;SDS011;8595;52.542;11.974;2023-03-01T03:40:41;19.27;;;11.47;;
16957;SDS011;8595;52.542;11.974;2023-03-01T03:43:10;14.40;;;10.50;;
16957;SDS011;8595;52.542;11.974;2023-03-01T03:45:38;15.17;;;10.40;;
16957;SDS011;8595;52.542;11.974;2023-03-01T03:48:07;17.77;;;11.83;;
16957;SDS011;8595;52.542;11.974;2023-03-01T03:50:38;17.50;;;11.40;;
16957;SDS011;8595;52.542;11.974;2023-03-01T03:53:13;15.50;;;11.33;;
16957;SDS011;8595;52.542;11.974;2023-03-01T03:55:40;18.23;;;11.73;;
16957;SDS011;8595;52.542;11.974;2023-03-01T03:58:11;16.23;;;10.90;;
16957;SDS011;8595;52.542;11.974;2023-03-01T04:00:38;19.77;;;12.47;;
16957;SDS011;8595;52.542;11.974;2023-03-01T04:03:09;18.70;;;10.57;;
16957;SDS011;8595;52.542;11.974;2023-03-01T04:05:37;17.73;;;12.90;;
16957;SDS011;8595;52.542;11.974;2023-03-01T04:08:04;16.43;;;11.80;;
16957;SDS011;8595;52.542;11.974;2023-03-01T04:10:33;21.07;;;13.73;;
16957;SDS011;8595;52.542;11.974;2023-03-01T04:13:02;19.60;;;13.43;;
16957;SDS011;8595;52.542;11.974;2023-03-01T04:15:30;19.93;;;13.80;;
16957;SDS011;8595;52.542;11.974;2023-03-01T04:17:58;17.87;;;12.67;;
16957;SDS011;8595;52.542;11.974;2023-03-01T04:20:27;20.93;;;12.23;;
16957;SDS011;8595;52.542;11.974;2023-03-01T04:22:58;19.40;;;12.97;;
16957;SDS011;8595;52.542;11.974;2023-03-01T04:25:41;18.63;;;11.40;;
16957;SDS011;8595;52.542;11.974;2023-03-01T04:28:15;19.13;;;11.73;;
16957;SDS011;8595;52.542;11.974;2023-03-01T04:30:42;21.20;;;13.17;;
16957;SDS011;8595;52.542;11.974;2023-03-01T04:33:10;20.33;;;13.80;;
16957;SDS011;8595;52.542;11.974;2023-03-01T04:35:38;18.20;;;12.17;;
16957;SDS011;8595;52.542;11.974;2023-03-01T04:38:06;19.87;;;12.47;;
16957;SDS011;8595;52.542;11.974;2023-03-01T04:40:33;17.23;;;11.30;;
16957;SDS011;8595;52.542;11.974;2023-03-01T04:43:00;18.90;;;11.27;;
16957;SDS011;8595;52.542;11.974;2023-03-01T04:45:28;17.50;;;10.70;;
16957;SDS011;8595;52.542;11.974;2023-03-01T04:47:59;17.97;;;13.43;;
16957;SDS011;8595;52.542;11.974;2023-03-01T04:50:27;17.50;;;13.10;;
16957;SDS011;8595;52.542;11.974;2023-03-01T04:52:57;17.50;;;12.40;;
16957;SDS011;8595;52.542;11.974;2023-03-01T04:55:25;16.37;;;11.63;;
16957;SDS011;8595;52.542;11.974;2023-03-01T04:57:52;17.80;;;11.93;;
16957;SDS011;8595;52.542;11.974;2023-03-01T05:00:20;18.40;;;11.60;;
16957;SDS011;8595;52.542;11.974;2023-03-01T05:02:48;22.33;;;12.17;;
16957;SDS011;8595;52.542;11.974;2023-03-01T05:05:21;17.73;;;11.30;;
16957;SDS011;8595;52.542;11.974;2023-03-01T05:07:55;17.73;;;11.57;;
16957;SDS011;8595;52.542;11.974;2023-03-01T05:10:24;16.73;;;10.97;;
16957;SDS011;8595;52.542;11.974;2023-03-01T05:12:54;14.90;;;11.30;;
16957;SDS011;8595;52.542;11.974;2023-03-01T05:15:22;19.00;;;10.97;;
16957;SDS011;8595;52.542;11.974;2023-03-01T05:17:50;14.83;;;9.53;;
16957;SDS011;8595;52.542;11.974;2023-03-01T05:20:17;15.60;;;10.57;;
16957;SDS011;8595;52.542;11.974;2023-03-01T05:22:48;17.83;;;11.00;;
16957;SDS011;8595;52.542;11.974;2023-03-01T05:25:14;20.97;;;11.33;;
16957;SDS011;8595;52.542;11.974;2023-03-01T05:27:43;16.50;;;11.17;;
16957;SDS011;8595;52.542;11.974;2023-03-01T05:30:10;18.87;;;12.07;;
16957;SDS011;8595;52.542;11.974;2023-03-01T05:32:42;14.50;;;10.77;;
16957;SDS011;8595;52.542;11.974;2023-03-01T05:35:10;16.93;;;11.67;;
16957;SDS011;8595;52.542;11.974;2023-03-01T05:37:40;17.43;;;12.30;;
16957;SDS011;8595;52.542;11.974;2023-03-01T05:40:08;20.10;;;13.13;;
16957;SDS011;8595;52.542;11.974;2023-03-01T05:42:41;17.20;;;13.40;;
16957;SDS011;8595;52.542;11.974;2023-03-01T05:45:13;20.37;;;13.03;;
16957;SDS011;8595;52.542;11.974;2023-03-01T05:47:41;20.13;;;11.97;;
16957;SDS011;8595;52.542;11.974;2023-03-01T05:50:13;15.83;;;11.23;;
16957;SDS011;8595;52.542;11.974;2023-03-01T05:52:44;12.90;;;9.77;;
16957;SDS011;8595;52.542;11.974;2023-03-01T05:55:13;18.37;;;11.87;;
16957;SDS011;8595;52.542;11.974;2023-03-01T05:57:40;17.80;;;11.33;;
16957;SDS011;8595;52.542;11.974;2023-03-01T06:00:09;17.70;;;12.30;;
16957;SDS011;8595;52.542;11.974;2023-03-01T06:02:41;20.13;;;12.00;;
16957;SDS011;8595;52.542;11.974;2023-03-01T06:05:08;17.30;;;11.73;;
16957;SDS011;8595;52.542;11.974;2023-03-01T06:07:37;19.60;;;13.23;;
16957;SDS011;8595;52.542;11.974;2023-03-01T06:10:05;18.23;;;11.50;;
16957;SDS011;8595;52.542;11.974;2023-03-01T06:12:32;16.37;;;10.10;;
16957;SDS011;8595;52.542;11.974;2023-03-01T06:15:00;16.60;;;11.03;;
16957;SDS011;8595;52.542;11.974;2023-03-01T06:17:30;19.47;;;11.37;;
16957;SDS011;8595;52.542;11.974;2023-03-01T06:20:02;23.67;;;13.53;;
16957;SDS011;8595;52.542;11.974;2023-03-01T06:22:29;20.57;;;13.77;;
16957;SDS011;8595;52.542;11.974;2023-03-01T06:24:56;19.13;;;12.90;;
16957;SDS011;8595;52.542;11.974;2023-03-01T06:27:24;25.87;;;14.17;;
16957;SDS011;8595;52.542;11.974;2023-03-01T06:29:55;23.13;;;14.20;;
16957;SDS011;8595;52.542;11.974;2023-03-01T06:32:21;19.50;;;12.53;;
16957;SDS011;8595;52.542;11.974;2023-03-01T06:34:50;18.53;;;12.57;;
16957;SDS011;8595;52.542;11.974;2023-03-01T06:37:17;22.63;;;13.33;;
16957;SDS011;8595;52.542;11.974;2023-03-01T06:39:46;24.07;;;15.27;;
16957;SDS011;8595;52.542;11.974;2023-03-01T06:42:14;27.60;;;13.80;;
16957;SDS011;8595;52.542;11.974;2023-03-01T06:44:43;19.13;;;13.03;;
16957;SDS011;8595;52.542;11.974;2023-03-01T06:47:11;20.50;;;12.63;;
16957;SDS011;8595;52.542;11.974;2023-03-01T06:49:38;23.47;;;14.17;;
16957;SDS011;8595;52.542;11.974;2023-03-01T06:52:07;20.93;;;12.63;;
16957;SDS011;8595;52.542;11.974;2023-03-01T06:54:33;20.53;;;12.83;;
16957;SDS011;8595;52.542;11.974;2023-03-01T06:57:00;21.10;;;12.63;;
16957;SDS011;8595;52.542;11.974;2023-03-01T06:59:27;20.77;;;13.10;;
16957;SDS011;8595;52.542;11.974;2023-03-01T07:01:54;26.00;;;13.97;;
16957;SDS011;8595;52.542;11.974;2023-03-01T07:04:21;20.17;;;13.67;;
16957;SDS011;8595;52.542;11.974;2023-03-01T07:06:47;24.43;;;13.40;;
16957;SDS011;8595;52.542;11.974;2023-03-01T07:09:21;23.10;;;14.60;;
16957;SDS011;8595;52.542;11.974;2023-03-01T07:11:49;23.77;;;15.33;;
16957;SDS011;8595;52.542;11.974;2023-03-01T07:14:18;28.37;;;13.93;;
16957;SDS011;8595;52.542;11.974;2023-03-01T07:16:49;19.40;;;11.93;;
16957;SDS011;8595;52.542;11.974;2023-03-01T07:19:19;19.73;;;13.00;;
16957;SDS011;8595;52.542;11.974;2023-03-01T07:21:52;22.03;;;12.17;;
16957;SDS011;8595;52.542;11.974;2023-03-01T07:24:22;15.83;;;11.00;;
16957;SDS011;8595;52.542;11.974;2023-03-01T07:26:50;14.97;;;10.20;;
16957;SDS011;8595;52.542;11.974;2023-03-01T07:29:21;15.40;;;10.67;;
16957;SDS011;8595;52.542;11.974;2023-03-01T07:31:57;15.50;;;9.87;;
16957;SDS011;8595;52.542;11.974;2023-03-01T07:34:24;13.63;;;9.57;;
16957;SDS011;8595;52.542;11.974;2023-03-01T07:36:52;13.40;;;9.20;;
16957;SDS011;8595;52.542;11.974;2023-03-01T07:39:23;14.43;;;9.50;;
16957;SDS011;8595;52.542;11.974;2023-03-01T07:41:59;15.73;;;9.60;;
16957;SDS011;8595;52.542;11.974;2023-03-01T07:44:26;13.03;;;10.13;;
16957;SDS011;8595;52.542;11.974;2023-03-01T07:46:53;15.50;;;10.20;;
16957;SDS011;8595;52.542;11.974;2023-03-01T07:49:23;15.30;;;9.20;;
16957;SDS011;8595;52.542;11.974;2023-03-01T07:51:54;12.57;;;9.43;;
16957;SDS011;8595;52.542;11.974;2023-03-01T07:54:22;11.55;;;8.85;;
16957;SDS011;8595;52.542;11.974;2023-03-01T07:56:50;14.32;;;9.93;;
16957;SDS011;8595;52.542;11.974;2023-03-01T07:59:17;13.98;;;9.75;;
16957;SDS011;8595;52.542;11.974;2023-03-01T08:01:44;12.82;;;10.13;;
16957;SDS011;8595;52.542;11.974;2023-03-01T08:04:11;14.98;;;11.00;;
16957;SDS011;8595;52.542;11.974;2023-03-01T08:06:38;16.42;;;11.75;;
16957;SDS011;8595;52.542;11.974;2023-03-01T08:09:05;19.77;;;13.90;;
16957;SDS011;8595;52.542;11.974;2023-03-01T08:11:34;16.80;;;12.48;;
16957;SDS011;8595;52.542;11.974;2023-03-01T08:14:01;18.92;;;13.77;;
16957;SDS011;8595;52.542;11.974;2023-03-01T08:16:28;20.58;;;14.10;;
16957;SDS011;8595;52.542;11.974;2023-03-01T08:18:54;25.17;;;18.20;;
16957;SDS011;8595;52.542;11.974;2023-03-01T08:21:26;23.63;;;15.52;;
16957;SDS011;8595;52.542;11.974;2023-03-01T08:23:55;27.15;;;19.98;;
16957;SDS011;8595;52.542;11.974;2023-03-01T08:26:30;24.17;;;20.27;;
16957;SDS011;8595;52.542;11.974;2023-03-01T08:29:13;27.60;;;18.77;;
16957;SDS011;8595;52.542;11.974;2023-03-01T08:31:40;18.27;;;13.63;;
16957;SDS011;8595;52.542;11.974;2023-03-01T08:34:09;21.35;;;15.88;;
16957;SDS011;8595;52.542;11.974;2023-03-01T08:36:38;16.92;;;13.52;;
16957;SDS011;8595;52.542;11.974;2023-03-01T08:39:06;18.50;;;13.32;;
16957;SDS011;8595;52.542;11.974;2023-03-01T08:41:34;17.42;;;12.18;;
16957;SDS011;8595;52.542;11.974;2023-03-01T08:44:03;15.90;;;12.95;;
16957;SDS011;8595;52.542;11.974;2023-03-01T08:46:31;15.75;;;12.20;;
16957;SDS011;8595;52.542;11.974;2023-03-01T08:49:03;16.45;;;11.50;;
16957;SDS011;8595;52.542;11.974;2023-03-01T08:51:32;14.35;;;9.80;;
16957;SDS011;8595;52.542;11.974;2023-03-01T08:54:05;12.05;;;9.20;;
16957;SDS011;8595;52.542;11.974;2023-03-01T08:56:33;14.18;;;10.70;;
16957;SDS011;8595;52.542;11.974;2023-03-01T08:59:00;16.30;;;9.88;;
16957;SDS011;8595;52.542;11.974;2023-03-01T09:01:39;15.52;;;11.40;;
16957;SDS011;8595;52.542;11.974;2023-03-01T09:04:09;18.10;;;11.52;;
16957;SDS011;8595;52.542;11.974;2023-03-01T09:06:39;19.48;;;11.98;;
16957;SDS011;8595;52.542;11.974;2023-03-01T09:09:11;15.65;;;12.07;;
16957;SDS011;8595;52.542;11.974;2023-03-01T09:11:41;14.10;;;12.50;;
16957;SDS011;8595;52.542;11.974;2023-03-01T09:14:11;20.05;;;15.50;;
16957;SDS011;8595;52.542;11.974;2023-03-01T09:16:39;29.90;;;19.15;;
16957;SDS011;8595;52.542;11.974;2023-03-01T09:19:06;26.02;;;18.98;;
16957;SDS011;8595;52.542;11.974;2023-03-01T09:21:33;24.02;;;17.63;;
16957;SDS011;8595;52.542;11.974;2023-03-01T09:23:59;23.55;;;18.20;;
16957;SDS011;8595;52.542;11.974;2023-03-01T09:26:26;28.23;;;18.83;;
16957;SDS011;8595;52.542;11.974;2023-03-01T09:28:54;17.80;;;14.07;;
16957;SDS011;8595;52.542;11.974;2023-03-01T09:31:22;17.05;;;13.80;;
16957;SDS011;8595;52.542;11.974;2023-03-01T09:33:52;16.52;;;14.80;;
16957;SDS011;8595;52.542;11.974;2023-03-01T09:36:38;13.60;;;10.88;;
16957;SDS011;8595;52.542;11.974;2023-03-01T09:39:09;16.35;;;13.40;;
16957;SDS011;8595;52.542;11.974;2023-03-01T09:41:38;14.45;;;11.45;;
16957;SDS011;8595;52.542;11.974;2023-03-01T09:44:13;10.73;;;8.63;;
16957;SDS011;8595;52.542;11.974;2023-03-01T09:46:47;10.52;;;8.70;;
16957;SDS011;8595;52.542;11.974;2023-03-01T09:49:18;15.23;;;10.52;;
16957;SDS011;8595;52.542;11.974;2023-03-01T09:51:50;12.15;;;9.18;;
16957;SDS011;8595;52.542;11.974;2023-03-01T09:54:22;11.10;;;8.02;;
16957;SDS011;8595;52.542;11.974;2023-03-01T09:56:53;12.65;;;9.25;;
16957;SDS011;8595;52.542;11.974;2023-03-01T09:59:30;10.80;;;8.80;;
16957;SDS011;8595;52.542;11.974;2023-03-01T10:02:11;13.95;;;10.18;;
16957;SDS011;8595;52.542;11.974;2023-03-01T10:04:49;9.20;;;6.80;;
16957;SDS011;8595;52.542;11.974;2023-03-01T10:07:20;12.30;;;7.63;;
16957;SDS011;8595;52.542;11.974;2023-03-01T10:09:53;10.40;;;6.93;;
16957;SDS011;8595;52.542;11.974;2023-03-01T10:12:20;7.25;;;5.93;;
16957;SDS011;8595;52.542;11.974;2023-03-01T10:14:51;7.65;;;6.03;;
16957;SDS011;8595;52.542;11.974;2023-03-01T10:17:27;6.93;;;5.32;;
16957;SDS011;8595;52.542;11.974;2023-03-01T10:20:10;6.80;;;5.63;;
16957;SDS011;8595;52.542;11.974;2023-03-01T10:22:46;9.43;;;7.25;;
16957;SDS011;8595;52.542;11.974;2023-03-01T10:25:16;8.57;;;5.22;;
16957;SDS011;8595;52.542;11.974;2023-03-01T10:27:51;6.32;;;4.57;;
16957;SDS011;8595;52.542;11.974;2023-03-01T10:30:20;5.50;;;3.92;;
16957;SDS011;8595;52.542;11.974;2023-03-01T10:32:51;6.55;;;4.97;;
16957;SDS011;8595;52.542;11.974;2023-03-01T10:35:21;9.65;;;6.80;;
16957;SDS011;8595;52.542;11.974;2023-03-01T10:37:56;8.32;;;6.47;;
16957;SDS011;8595;52.542;11.974;2023-03-01T10:40:24;9.20;;;8.18;;
16957;SDS011;8595;52.542;11.974;2023-03-01T10:42:51;9.15;;;7.18;;
16957;SDS011;8595;52.542;11.974;2023-03-01T10:45:27;12.38;;;8.63;;
16957;SDS011;8595;52.542;11.974;2023-03-01T10:48:05;6.93;;;5.22;;
16957;SDS011;8595;52.542;11.974;2023-03-01T10:50:48;9.23;;;5.70;;
16957;SDS011;8595;52.542;11.974;2023-03-01T10:53:22;8.60;;;5.68;;
16957;SDS011;8595;52.542;11.974;2023-03-01T10:55:58;35.75;;;32.25;;
16957;SDS011;8595;52.542;11.974;2023-03-01T10:58:28;13.43;;;10.55;;
16957;SDS011;8595;52.542;11.974;2023-03-01T11:00:56;10.18;;;8.88;;
16957;SDS011;8595;52.542;11.974;2023-03-01T11:03:25;11.35;;;7.72;;
16957;SDS011;8595;52.542;11.974;2023-03-01T11:05:56;5.25;;;4.35;;
16957;SDS011;8595;52.542;11.974;2023-03-01T11:08:41;8.57;;;4.97;;
16957;SDS011;8595;52.542;11.974;2023-03-01T11:11:14;9.43;;;8.00;;
16957;SDS011;8595;52.542;11.974;2023-03-01T11:13:52;5.47;;;4.03;;
16957;SDS011;8595;52.542;11.974;2023-03-01T11:16:28;5.47;;;3.92;;
16957;SDS011;8595;52.542;11.974;2023-03-01T11:19:00;6.82;;;4.50;;
16957;SDS011;8595;52.542;11.974;2023-03-01T11:21:41;5.30;;;3.63;;
16957;SDS011;8595;52.542;11.974;2023-03-01T11:24:15;5.10;;;4.00;;
16957;SDS011;8595;52.542;11.974;2023-03-01T11:26:44;7.00;;;4.53;;
16957;SDS011;8595;52.542;11.974;2023-03-01T11:29:17;5.25;;;4.10;;
16957;SDS011;8595;52.542;11.974;2023-03-01T11:31:51;5.32;;;4.22;;
16957;SDS011;8595;52.542;11.974;2023-03-01T11:34:23;5.40;;;4.00;;
16957;SDS011;8595;52.542;11.974;2023-03-01T11:37:03;4.57;;;3.90;;
16957;SDS011;8595;52.542;11.974;2023-03-01T11:39:38;5.75;;;3.95;;
16957;SDS011;8595;52.542;11.974;2023-03-01T11:42:11;7.28;;;4.78;;
16957;SDS011;8595;52.542;11.974;2023-03-01T11:44:40;7.03;;;4.57;;
16957;SDS011;8595;52.542;11.974;2023-03-01T11:47:19;5.28;;;4.15;;
16957;SDS011;8595;52.542;11.974;2023-03-01T11:52:46;9.02;;;6.97;;
16957;SDS011;8595;52.542;11.974;2023-03-01T11:55:26;4.25;;;3.78;;
16957;SDS011;8595;52.542;11.974;2023-03-01T12:01:00;5.75;;;4.15;;
16957;SDS011;8595;52.542;11.974;2023-03-01T12:03:44;7.15;;;4.82;;
16957;SDS011;8595;52.542;11.974;2023-03-01T12:06:32;5.55;;;4.60;;
16957;SDS011;8595;52.542;11.974;2023-03-01T12:12:07;6.40;;;4.75;;
16957;SDS011;8595;52.542;11.974;2023-03-01T12:14:56;6.55;;;4.20;;
16957;SDS011;8595;52.542;11.974;2023-03-01T12:17:49;7.50;;;4.13;;
16957;SDS011;8595;52.542;11.974;2023-03-01T12:20:28;5.25;;;3.95;;
16957;SDS011;8595;52.542;11.974;2023-03-01T12:23:02;4.55;;;3.63;;
16957;SDS011;8595;52.542;11.974;2023-03-01T12:25:50;5.75;;;4.05;;
16957;SDS011;8595;52.542;11.974;2023-03-01T12:28:24;5.15;;;3.92;;
16957;SDS011;8595;52.542;11.974;2023-03-01T12:31:08;5.70;;;3.78;;
16957;SDS011;8595;52.542;11.974;2023-03-01T12:33:51;4.80;;;4.32;;
16957;SDS011;8595;52.542;11.974;2023-03-01T12:36:27;7.20;;;4.72;;
16957;SDS011;8595;52.542;11.974;2023-03-01T12:39:09;5.45;;;3.90;;
16957;SDS011;8595;52.542;11.974;2023-03-01T12:41:53;4.45;;;4.03;;
16957;SDS011;8595;52.542;11.974;2023-03-01T12:44:30;5.43;;;4.53;;
16957;SDS011;8595;52.542;11.974;2023-03-01T12:47:15;7.70;;;4.50;;
16957;SDS011;8595;52.542;11.974;2023-03-01T12:49:50;8.50;;;5.35;;
16957;SDS011;8595;52.542;11.974;2023-03-01T12:52:22;6.25;;;4.38;;
16957;SDS011;8595;52.542;11.974;2023-03-01T12:54:55;5.60;;;3.88;;
16957;SDS011;8595;52.542;11.974;2023-03-01T12:57:29;8.02;;;5.03;;
16957;SDS011;8595;52.542;11.974;2023-03-01T13:00:05;7.03;;;4.97;;
16957;SDS011;8595;52.542;11.974;2023-03-01T13:02:49;6.47;;;5.35;;
16957;SDS011;8595;52.542;11.974;2023-03-01T13:05:24;7.53;;;5.00;;
16957;SDS011;8595;52.542;11.974;2023-03-01T13:08:00;7.68;;;5.78;;
16957;SDS011;8595;52.542;11.974;2023-03-01T13:10:33;6.82;;;5.28;;
16957;SDS011;8595;52.542;11.974;2023-03-01T13:13:20;6.25;;;5.40;;
16957;SDS011;8595;52.542;11.974;2023-03-01T13:15:47;5.25;;;4.70;;
16957;SDS011;8595;52.542;11.974;2023-03-01T13:18:32;6.40;;;5.40;;
16957;SDS011;8595;52.542;11.974;2023-03-01T13:21:02;8.70;;;6.05;;
16957;SDS011;8595;52.542;11.974;2023-03-01T13:23:31;7.85;;;5.88;;
16957;SDS011;8595;52.542;11.974;2023-03-01T13:26:01;8.98;;;5.95;;
16957;SDS011;8595;52.542;11.974;2023-03-01T13:28:40;6.43;;;5.10;;
16957;SDS011;8595;52.542;11.974;2023-03-01T13:34:46;8.93;;;6.45;;
16957;SDS011;8595;52.542;11.974;2023-03-01T13:37:35;9.55;;;6.75;;
16957;SDS011;8595;52.542;11.974;2023-03-01T13:43:31;8.27;;;5.38;;
16957;SDS011;8595;52.542;11.974;2023-03-01T13:46:07;6.07;;;5.30;;
16957;SDS011;8595;52.542;11.974;2023-03-01T13:48:36;9.88;;;7.90;;
16957;SDS011;8595;52.542;11.974;2023-03-01T13:51:05;8.55;;;5.38;;
16957;SDS011;8595;52.542;11.974;2023-03-01T13:53:39;10.25;;;6.25;;
16957;SDS011;8595;52.542;11.974;2023-03-01T13:56:09;9.90;;;5.68;;
16957;SDS011;8595;52.542;11.974;2023-03-01T13:58:47;6.38;;;5.00;;
16957;SDS011;8595;52.542;11.974;2023-03-01T14:01:24;5.13;;;4.38;;
16957;SDS011;8595;52.542;11.974;2023-03-01T14:03:54;6.32;;;4.95;;
16957;SDS011;8595;52.542;11.974;2023-03-01T14:06:22;5.65;;;4.63;;
16957;SDS011;8595;52.542;11.974;2023-03-01T14:08:51;5.85;;;4.80;;
16957;SDS011;8595;52.542;11.974;2023-03-01T14:14:34;7.22;;;5.85;;
16957;SDS011;8595;52.542;11.974;2023-03-01T14:17:16;8.05;;;5.40;;
16957;SDS011;8595;52.542;11.974;2023-03-01T14:20:02;7.18;;;5.00;;
16957;SDS011;8595;52.542;11.974;2023-03-01T14:22:35;6.45;;;5.00;;
16957;SDS011;8595;52.542;11.974;2023-03-01T14:25:04;7.78;;;5.60;;
16957;SDS011;8595;52.542;11.974;2023-03-01T14:27:45;6.75;;;4.30;;
16957;SDS011;8595;52.542;11.974;2023-03-01T14:30:21;5.38;;;4.32;;
16957;SDS011;8595;52.542;11.974;2023-03-01T14:32:55;5.57;;;3.63;;
16957;SDS011;8595;52.542;11.974;2023-03-01T14:35:24;3.83;;;3.45;;
16957;SDS011;8595;52.542;11.974;2023-03-01T14:37:52;4.32;;;3.92;;
16957;SDS011;8595;52.542;11.974;2023-03-01T14:40:21;6.78;;;4.47;;
16957;SDS011;8595;52.542;11.974;2023-03-01T14:42:50;5.00;;;4.40;;
16957;SDS011;8595;52.542;11.974;2023-03-01T14:45:20;5.93;;;4.38;;
16957;SDS011;8595;52.542;11.974;2023-03-01T14:47:47;5.68;;;3.65;;
16957;SDS011;8595;52.542;11.974;2023-03-01T14:50:18;4.47;;;3.80;;
16957;SDS011;8595;52.542;11.974;2023-03-01T14:52:52;4.82;;;3.92;;
16957;SDS011;8595;52.542;11.974;2023-03-01T14:55:24;8.70;;;3.70;;
16957;SDS011;8595;52.542;11.974;2023-03-01T14:57:57;6.25;;;5.22;;
16957;SDS011;8595;52.542;11.974;2023-03-01T15:00:25;6.25;;;4.47;;
16957;SDS011;8595;52.542;11.974;2023-03-01T15:02:54;10.70;;;6.15;;
16957;SDS011;8595;52.542;11.974;2023-03-01T15:05:25;7.55;;;4.90;;
16957;SDS011;8595;52.542;11.974;2023-03-01T15:08:00;5.72;;;4.22;;
16957;SDS011;8595;52.542;11.974;2023-03-01T15:10:30;5.20;;;4.70;;
16957;SDS011;8595;52.542;11.974;2023-03-01T15:13:09;5.50;;;4.72;;
16957;SDS011;8595;52.542;11.974;2023-03-01T15:15:40;5.90;;;4.65;;
16957;SDS011;8595;52.542;11.974;2023-03-01T15:18:13;10.07;;;8.02;;
16957;SDS011;8595;52.542;11.974;2023-03-01T15:20:45;8.77;;;7.88;;